sensor_id;sensor_type;location;lat;lon;timestamp;P1;durP1;ratioP1;P2;durP2;ratioP2
15254;SDS011;7730;49.610;11.136;2022-10-31T00:01:45;14.77;;;7.10;;
15254;SDS011;7730;49.610;11.136;2022-10-31T00:04:12;16.55;;;6.97;;
15254;SDS011;7730;49.610;11.136;2022-10-31T00:06:39;15.20;;;6.90;;
15254;SDS011;7730;49.610;11.136;2022-10-31T00:09:08;12.60;;;6.63;;
15254;SDS011;7730;49.610;11.136;2022-10-31T00:11:36;14.05;;;6.88;;
15254;SDS011;7730;49.610;11.136;2022-10-31T00:14:03;14.80;;;6.85;;
15254;SDS011;7730;49.610;11.136;2022-10-31T00:16:30;15.57;;;7.13;;
15254;SDS011;7730;49.610;11.136;2022-10-31T00:18:57;15.80;;;6.70;;
15254;SDS011;7730;49.610;11.136;2022-10-31T00:21:25;13.23;;;6.35;;
15254;SDS011;7730;49.610;11.136;2022-10-31T00:23:52;13.85;;;5.95;;
15254;SDS011;7730;49.610;11.136;2022-10-31T00:26:21;13.73;;;6.43;;
15254;SDS011;7730;49.610;11.136;2022-10-31T00:28:48;14.38;;;6.07;;
15254;SDS011;7730;49.610;11.136;2022-10-31T00:31:16;12.68;;;5.72;;
15254;SDS011;7730;49.610;11.136;2022-10-31T00:33:43;13.18;;;5.80;;
15254;SDS011;7730;49.610;11.136;2022-10-31T00:36:10;14.07;;;6.00;;
15254;SDS011;7730;49.610;11.136;2022-10-31T00:38:38;13.20;;;5.93;;
15254;SDS011;7730;49.610;11.136;2022-10-31T00:41:05;13.68;;;6.00;;
15254;SDS011;7730;49.610;11.136;2022-10-31T00:43:33;13.55;;;5.60;;
15254;SDS011;7730;49.610;11.136;2022-10-31T00:46:00;13.82;;;5.70;;
15254;SDS011;7730;49.610;11.136;2022-10-31T00:48:27;13.70;;;5.40;;
15254;SDS011;7730;49.610;11.136;2022-10-31T00:50:54;14.38;;;5.95;;
15254;SDS011;7730;49.610;11.136;2022-10-31T00:53:22;13.25;;;5.63;;
15254;SDS011;7730;49.610;11.136;2022-10-31T00:55:49;15.63;;;6.20;;
15254;SDS011;7730;49.610;11.136;2022-10-31T00:58:16;14.63;;;6.05;;
15254;SDS011;7730;49.610;11.136;2022-10-31T01:00:46;13.35;;;5.65;;
15254;SDS011;7730;49.610;11.136;2022-10-31T01:03:19;13.68;;;5.28;;
15254;SDS011;7730;49.610;11.136;2022-10-31T01:05:54;12.95;;;5.57;;
15254;SDS011;7730;49.610;11.136;2022-10-31T01:08:21;14.00;;;5.22;;
15254;SDS011;7730;49.610;11.136;2022-10-31T01:10:57;14.65;;;5.75;;
15254;SDS011;7730;49.610;11.136;2022-10-31T01:13:24;14.15;;;5.43;;
15254;SDS011;7730;49.610;11.136;2022-10-31T01:15:54;12.30;;;5.47;;
15254;SDS011;7730;49.610;11.136;2022-10-31T01:18:21;11.95;;;5.22;;
15254;SDS011;7730;49.610;11.136;2022-10-31T01:20:56;12.63;;;5.55;;
15254;SDS011;7730;49.610;11.136;2022-10-31T01:23:23;10.73;;;5.00;;
15254;SDS011;7730;49.610;11.136;2022-10-31T01:25:58;10.40;;;4.50;;
15254;SDS011;7730;49.610;11.136;2022-10-31T01:28:25;13.30;;;5.35;;
15254;SDS011;7730;49.610;11.136;2022-10-31T01:30:52;12.95;;;4.90;;
15254;SDS011;7730;49.610;11.136;2022-10-31T01:33:20;12.38;;;5.25;;
15254;SDS011;7730;49.610;11.136;2022-10-31T01:35:47;12.90;;;4.85;;
15254;SDS011;7730;49.610;11.136;2022-10-31T01:38:14;13.40;;;5.13;;
15254;SDS011;7730;49.610;11.136;2022-10-31T01:40:41;13.32;;;5.43;;
15254;SDS011;7730;49.610;11.136;2022-10-31T01:43:09;10.80;;;4.72;;
15254;SDS011;7730;49.610;11.136;2022-10-31T01:45:38;13.27;;;5.40;;
15254;SDS011;7730;49.610;11.136;2022-10-31T01:48:06;13.30;;;4.80;;
15254;SDS011;7730;49.610;11.136;2022-10-31T01:50:39;11.50;;;5.05;;
15254;SDS011;7730;49.610;11.136;2022-10-31T01:53:06;12.35;;;5.25;;
15254;SDS011;7730;49.610;11.136;2022-10-31T01:55:35;13.73;;;5.20;;
15254;SDS011;7730;49.610;11.136;2022-10-31T01:58:04;12.55;;;5.10;;
15254;SDS011;7730;49.610;11.136;2022-10-31T02:00:33;13.18;;;5.30;;
15254;SDS011;7730;49.610;11.136;2022-10-31T02:03:01;13.70;;;5.43;;
15254;SDS011;7730;49.610;11.136;2022-10-31T02:05:28;12.60;;;5.40;;
15254;SDS011;7730;49.610;11.136;2022-10-31T02:07:58;12.30;;;5.22;;
15254;SDS011;7730;49.610;11.136;2022-10-31T02:10:26;12.50;;;5.60;;
15254;SDS011;7730;49.610;11.136;2022-10-31T02:12:55;12.80;;;5.50;;
15254;SDS011;7730;49.610;11.136;2022-10-31T02:15:23;12.02;;;5.07;;
15254;SDS011;7730;49.610;11.136;2022-10-31T02:17:50;12.20;;;5.20;;
15254;SDS011;7730;49.610;11.136;2022-10-31T02:20:18;13.07;;;5.50;;
15254;SDS011;7730;49.610;11.136;2022-10-31T02:22:54;13.35;;;5.50;;
15254;SDS011;7730;49.610;11.136;2022-10-31T02:25:34;14.80;;;5.57;;
15254;SDS011;7730;49.610;11.136;2022-10-31T02:28:15;12.00;;;5.38;;
15254;SDS011;7730;49.610;11.136;2022-10-31T02:30:55;16.42;;;5.30;;
15254;SDS011;7730;49.610;11.136;2022-10-31T02:33:23;13.55;;;5.03;;
15254;SDS011;7730;49.610;11.136;2022-10-31T02:35:55;11.75;;;5.35;;
15254;SDS011;7730;49.610;11.136;2022-10-31T02:38:26;12.02;;;5.03;;
15254;SDS011;7730;49.610;11.136;2022-10-31T02:40:57;13.32;;;4.65;;
15254;SDS011;7730;49.610;11.136;2022-10-31T02:43:27;11.10;;;4.70;;
15254;SDS011;7730;49.610;11.136;2022-10-31T02:45:59;13.10;;;5.20;;
15254;SDS011;7730;49.610;11.136;2022-10-31T02:48:28;10.68;;;4.63;;
15254;SDS011;7730;49.610;11.136;2022-10-31T02:51:00;12.32;;;4.80;;
15254;SDS011;7730;49.610;11.136;2022-10-31T02:53:31;10.10;;;4.75;;
15254;SDS011;7730;49.610;11.136;2022-10-31T02:55:59;11.05;;;4.80;;
15254;SDS011;7730;49.610;11.136;2022-10-31T02:58:28;12.48;;;4.53;;
15254;SDS011;7730;49.610;11.136;2022-10-31T03:01:17;13.20;;;5.40;;
15254;SDS011;7730;49.610;11.136;2022-10-31T03:03:51;14.68;;;5.80;;
15254;SDS011;7730;49.610;11.136;2022-10-31T03:06:20;24.17;;;6.20;;
15254;SDS011;7730;49.610;11.136;2022-10-31T03:08:54;22.00;;;6.80;;
15254;SDS011;7730;49.610;11.136;2022-10-31T03:11:22;20.05;;;6.32;;
15254;SDS011;7730;49.610;11.136;2022-10-31T03:13:50;19.00;;;6.80;;
15254;SDS011;7730;49.610;11.136;2022-10-31T03:16:21;22.23;;;6.57;;
15254;SDS011;7730;49.610;11.136;2022-10-31T03:18:50;17.10;;;6.80;;
15254;SDS011;7730;49.610;11.136;2022-10-31T03:21:18;15.85;;;5.88;;
15254;SDS011;7730;49.610;11.136;2022-10-31T03:23:47;14.30;;;5.72;;
15254;SDS011;7730;49.610;11.136;2022-10-31T03:26:17;16.75;;;6.18;;
15254;SDS011;7730;49.610;11.136;2022-10-31T03:28:45;15.32;;;5.88;;
15254;SDS011;7730;49.610;11.136;2022-10-31T03:31:13;13.77;;;5.20;;
15254;SDS011;7730;49.610;11.136;2022-10-31T03:33:43;15.48;;;6.32;;
15254;SDS011;7730;49.610;11.136;2022-10-31T03:36:11;16.73;;;6.30;;
15254;SDS011;7730;49.610;11.136;2022-10-31T03:38:40;16.27;;;6.35;;
15254;SDS011;7730;49.610;11.136;2022-10-31T03:41:09;15.80;;;6.03;;
15254;SDS011;7730;49.610;11.136;2022-10-31T03:43:38;13.20;;;5.68;;
15254;SDS011;7730;49.610;11.136;2022-10-31T03:46:06;13.35;;;5.20;;
15254;SDS011;7730;49.610;11.136;2022-10-31T03:48:33;13.45;;;5.00;;
15254;SDS011;7730;49.610;11.136;2022-10-31T03:51:04;11.60;;;4.75;;
15254;SDS011;7730;49.610;11.136;2022-10-31T03:53:36;10.88;;;4.82;;
15254;SDS011;7730;49.610;11.136;2022-10-31T03:56:06;11.55;;;5.10;;
15254;SDS011;7730;49.610;11.136;2022-10-31T03:58:37;13.77;;;4.95;;
15254;SDS011;7730;49.610;11.136;2022-10-31T04:01:06;10.43;;;4.63;;
15254;SDS011;7730;49.610;11.136;2022-10-31T04:03:35;10.30;;;4.63;;
15254;SDS011;7730;49.610;11.136;2022-10-31T04:06:05;12.82;;;5.10;;
15254;SDS011;7730;49.610;11.136;2022-10-31T04:08:33;11.00;;;4.93;;
15254;SDS011;7730;49.610;11.136;2022-10-31T04:11:03;13.20;;;4.95;;
15254;SDS011;7730;49.610;11.136;2022-10-31T04:13:31;12.98;;;5.20;;
15254;SDS011;7730;49.610;11.136;2022-10-31T04:16:00;12.55;;;5.10;;
15254;SDS011;7730;49.610;11.136;2022-10-31T04:18:27;11.02;;;4.70;;
15254;SDS011;7730;49.610;11.136;2022-10-31T04:21:01;11.77;;;4.97;;
15254;SDS011;7730;49.610;11.136;2022-10-31T04:23:29;11.30;;;4.60;;
15254;SDS011;7730;49.610;11.136;2022-10-31T04:25:57;12.43;;;4.70;;
15254;SDS011;7730;49.610;11.136;2022-10-31T04:28:24;12.32;;;5.05;;
15254;SDS011;7730;49.610;11.136;2022-10-31T04:30:51;10.80;;;4.88;;
15254;SDS011;7730;49.610;11.136;2022-10-31T04:33:18;12.10;;;5.15;;
15254;SDS011;7730;49.610;11.136;2022-10-31T04:35:46;11.98;;;5.07;;
15254;SDS011;7730;49.610;11.136;2022-10-31T04:38:13;13.25;;;5.25;;
15254;SDS011;7730;49.610;11.136;2022-10-31T04:40:41;12.88;;;5.20;;
15254;SDS011;7730;49.610;11.136;2022-10-31T04:43:08;14.02;;;5.30;;
15254;SDS011;7730;49.610;11.136;2022-10-31T04:45:36;18.13;;;6.65;;
15254;SDS011;7730;49.610;11.136;2022-10-31T04:48:03;14.80;;;5.95;;
15254;SDS011;7730;49.610;11.136;2022-10-31T04:50:31;17.98;;;5.72;;
15254;SDS011;7730;49.610;11.136;2022-10-31T04:52:58;13.75;;;6.05;;
15254;SDS011;7730;49.610;11.136;2022-10-31T04:55:25;17.58;;;5.65;;
15254;SDS011;7730;49.610;11.136;2022-10-31T04:57:53;14.13;;;5.35;;
15254;SDS011;7730;49.610;11.136;2022-10-31T05:00:21;20.35;;;5.82;;
15254;SDS011;7730;49.610;11.136;2022-10-31T05:02:49;18.50;;;5.72;;
15254;SDS011;7730;49.610;11.136;2022-10-31T05:05:17;18.42;;;5.63;;
15254;SDS011;7730;49.610;11.136;2022-10-31T05:07:45;16.00;;;5.68;;
15254;SDS011;7730;49.610;11.136;2022-10-31T05:10:13;17.08;;;7.32;;
15254;SDS011;7730;49.610;11.136;2022-10-31T05:12:45;14.70;;;6.35;;
15254;SDS011;7730;49.610;11.136;2022-10-31T05:15:14;13.05;;;5.70;;
15254;SDS011;7730;49.610;11.136;2022-10-31T05:17:41;13.18;;;5.57;;
15254;SDS011;7730;49.610;11.136;2022-10-31T05:20:09;13.85;;;6.20;;
15254;SDS011;7730;49.610;11.136;2022-10-31T05:22:36;13.35;;;5.90;;
15254;SDS011;7730;49.610;11.136;2022-10-31T05:25:03;14.30;;;5.78;;
15254;SDS011;7730;49.610;11.136;2022-10-31T05:27:30;12.85;;;5.63;;
15254;SDS011;7730;49.610;11.136;2022-10-31T05:29:57;13.23;;;5.75;;
15254;SDS011;7730;49.610;11.136;2022-10-31T05:32:26;11.77;;;5.65;;
15254;SDS011;7730;49.610;11.136;2022-10-31T05:34:54;12.98;;;5.30;;
15254;SDS011;7730;49.610;11.136;2022-10-31T05:37:21;11.73;;;5.28;;
15254;SDS011;7730;49.610;11.136;2022-10-31T05:39:48;11.57;;;5.28;;
15254;SDS011;7730;49.610;11.136;2022-10-31T05:42:15;12.00;;;5.22;;
15254;SDS011;7730;49.610;11.136;2022-10-31T05:44:42;12.15;;;5.10;;
15254;SDS011;7730;49.610;11.136;2022-10-31T05:47:10;10.93;;;5.10;;
15254;SDS011;7730;49.610;11.136;2022-10-31T05:49:38;12.13;;;5.60;;
15254;SDS011;7730;49.610;11.136;2022-10-31T05:52:05;13.27;;;5.88;;
15254;SDS011;7730;49.610;11.136;2022-10-31T05:54:32;12.98;;;5.63;;
15254;SDS011;7730;49.610;11.136;2022-10-31T05:56:59;12.20;;;5.60;;
15254;SDS011;7730;49.610;11.136;2022-10-31T05:59:26;13.15;;;6.30;;
15254;SDS011;7730;49.610;11.136;2022-10-31T06:01:53;17.75;;;10.93;;
15254;SDS011;7730;49.610;11.136;2022-10-31T06:04:20;14.95;;;8.93;;
15254;SDS011;7730;49.610;11.136;2022-10-31T06:06:49;15.40;;;7.70;;
15254;SDS011;7730;49.610;11.136;2022-10-31T06:09:16;13.20;;;6.60;;
15254;SDS011;7730;49.610;11.136;2022-10-31T06:11:43;12.82;;;6.15;;
15254;SDS011;7730;49.610;11.136;2022-10-31T06:14:10;13.00;;;5.82;;
15254;SDS011;7730;49.610;11.136;2022-10-31T06:16:37;12.48;;;5.75;;
15254;SDS011;7730;49.610;11.136;2022-10-31T06:19:04;12.65;;;5.40;;
15254;SDS011;7730;49.610;11.136;2022-10-31T06:21:31;13.05;;;6.18;;
15254;SDS011;7730;49.610;11.136;2022-10-31T06:23:59;18.27;;;6.13;;
15254;SDS011;7730;49.610;11.136;2022-10-31T06:26:26;21.35;;;7.70;;
15254;SDS011;7730;49.610;11.136;2022-10-31T06:28:53;20.02;;;7.65;;
15254;SDS011;7730;49.610;11.136;2022-10-31T06:31:20;19.23;;;7.93;;
15254;SDS011;7730;49.610;11.136;2022-10-31T06:33:48;21.85;;;8.07;;
15254;SDS011;7730;49.610;11.136;2022-10-31T06:36:15;21.42;;;8.35;;
15254;SDS011;7730;49.610;11.136;2022-10-31T06:38:42;16.75;;;8.38;;
15254;SDS011;7730;49.610;11.136;2022-10-31T06:41:10;20.50;;;7.65;;
15254;SDS011;7730;49.610;11.136;2022-10-31T06:43:37;19.80;;;7.72;;
15254;SDS011;7730;49.610;11.136;2022-10-31T06:46:04;16.25;;;6.65;;
15254;SDS011;7730;49.610;11.136;2022-10-31T06:48:32;12.20;;;5.57;;
15254;SDS011;7730;49.610;11.136;2022-10-31T06:50:59;13.70;;;5.38;;
15254;SDS011;7730;49.610;11.136;2022-10-31T06:53:27;11.80;;;5.32;;
15254;SDS011;7730;49.610;11.136;2022-10-31T06:55:54;14.35;;;5.63;;
15254;SDS011;7730;49.610;11.136;2022-10-31T06:58:23;11.45;;;5.22;;
15254;SDS011;7730;49.610;11.136;2022-10-31T07:00:50;12.77;;;4.47;;
15254;SDS011;7730;49.610;11.136;2022-10-31T07:03:17;11.50;;;4.60;;
15254;SDS011;7730;49.610;11.136;2022-10-31T07:05:45;11.20;;;4.50;;
15254;SDS011;7730;49.610;11.136;2022-10-31T07:08:12;10.38;;;4.25;;
15254;SDS011;7730;49.610;11.136;2022-10-31T07:10:41;9.52;;;4.22;;
15254;SDS011;7730;49.610;11.136;2022-10-31T07:13:09;10.90;;;4.60;;
15254;SDS011;7730;49.610;11.136;2022-10-31T07:15:38;10.02;;;4.35;;
15254;SDS011;7730;49.610;11.136;2022-10-31T07:18:06;12.55;;;4.70;;
15254;SDS011;7730;49.610;11.136;2022-10-31T07:20:34;10.07;;;4.35;;
15254;SDS011;7730;49.610;11.136;2022-10-31T07:23:01;12.00;;;5.30;;
15254;SDS011;7730;49.610;11.136;2022-10-31T07:25:29;16.38;;;7.00;;
15254;SDS011;7730;49.610;11.136;2022-10-31T07:27:56;15.80;;;6.72;;
15254;SDS011;7730;49.610;11.136;2022-10-31T07:30:23;20.42;;;14.75;;
15254;SDS011;7730;49.610;11.136;2022-10-31T07:32:51;16.58;;;7.85;;
15254;SDS011;7730;49.610;11.136;2022-10-31T07:35:19;14.38;;;6.97;;
15254;SDS011;7730;49.610;11.136;2022-10-31T07:37:47;15.48;;;8.20;;
15254;SDS011;7730;49.610;11.136;2022-10-31T07:40:14;15.27;;;7.40;;
15254;SDS011;7730;49.610;11.136;2022-10-31T07:42:41;16.90;;;8.90;;
15254;SDS011;7730;49.610;11.136;2022-10-31T07:45:10;18.35;;;9.48;;
15254;SDS011;7730;49.610;11.136;2022-10-31T07:47:37;20.13;;;9.75;;
15254;SDS011;7730;49.610;11.136;2022-10-31T07:50:06;19.55;;;9.77;;
15254;SDS011;7730;49.610;11.136;2022-10-31T07:52:34;19.05;;;9.10;;
15254;SDS011;7730;49.610;11.136;2022-10-31T07:55:01;16.73;;;8.77;;
15254;SDS011;7730;49.610;11.136;2022-10-31T07:57:28;17.73;;;8.82;;
15254;SDS011;7730;49.610;11.136;2022-10-31T07:59:55;18.33;;;9.32;;
15254;SDS011;7730;49.610;11.136;2022-10-31T08:02:22;16.52;;;8.95;;
15254;SDS011;7730;49.610;11.136;2022-10-31T08:04:49;11.38;;;4.90;;
15254;SDS011;7730;49.610;11.136;2022-10-31T08:07:17;9.13;;;4.50;;
15254;SDS011;7730;49.610;11.136;2022-10-31T08:09:45;8.65;;;4.05;;
15254;SDS011;7730;49.610;11.136;2022-10-31T08:12:12;9.38;;;4.05;;
15254;SDS011;7730;49.610;11.136;2022-10-31T08:14:39;8.38;;;3.78;;
15254;SDS011;7730;49.610;11.136;2022-10-31T08:17:06;8.25;;;4.07;;
15254;SDS011;7730;49.610;11.136;2022-10-31T08:19:33;8.70;;;3.80;;
15254;SDS011;7730;49.610;11.136;2022-10-31T08:22:00;7.53;;;3.75;;
15254;SDS011;7730;49.610;11.136;2022-10-31T08:24:28;9.82;;;3.97;;
15254;SDS011;7730;49.610;11.136;2022-10-31T08:26:55;8.70;;;4.20;;
15254;SDS011;7730;49.610;11.136;2022-10-31T08:29:22;8.93;;;3.92;;
15254;SDS011;7730;49.610;11.136;2022-10-31T08:31:50;6.93;;;3.90;;
15254;SDS011;7730;49.610;11.136;2022-10-31T08:34:17;8.48;;;3.90;;
15254;SDS011;7730;49.610;11.136;2022-10-31T08:36:44;9.18;;;4.15;;
15254;SDS011;7730;49.610;11.136;2022-10-31T08:39:13;10.32;;;4.07;;
15254;SDS011;7730;49.610;11.136;2022-10-31T08:41:41;8.10;;;4.05;;
15254;SDS011;7730;49.610;11.136;2022-10-31T08:44:08;10.57;;;4.47;;
15254;SDS011;7730;49.610;11.136;2022-10-31T08:46:35;10.55;;;4.53;;
15254;SDS011;7730;49.610;11.136;2022-10-31T08:49:02;9.25;;;4.00;;
15254;SDS011;7730;49.610;11.136;2022-10-31T08:51:29;9.25;;;4.20;;
15254;SDS011;7730;49.610;11.136;2022-10-31T08:53:57;9.25;;;4.05;;
15254;SDS011;7730;49.610;11.136;2022-10-31T08:56:24;9.85;;;4.32;;
15254;SDS011;7730;49.610;11.136;2022-10-31T08:58:53;11.13;;;4.65;;
15254;SDS011;7730;49.610;11.136;2022-10-31T09:01:20;9.80;;;4.80;;
15254;SDS011;7730;49.610;11.136;2022-10-31T09:03:47;9.63;;;4.53;;
15254;SDS011;7730;49.610;11.136;2022-10-31T09:06:14;12.98;;;5.00;;
15254;SDS011;7730;49.610;11.136;2022-10-31T09:08:41;12.00;;;4.93;;
15254;SDS011;7730;49.610;11.136;2022-10-31T09:11:08;11.65;;;4.88;;
15254;SDS011;7730;49.610;11.136;2022-10-31T09:13:35;12.93;;;5.28;;
15254;SDS011;7730;49.610;11.136;2022-10-31T09:16:04;12.95;;;5.10;;
15254;SDS011;7730;49.610;11.136;2022-10-31T09:18:31;12.13;;;5.07;;
15254;SDS011;7730;49.610;11.136;2022-10-31T09:20:59;10.02;;;4.57;;
15254;SDS011;7730;49.610;11.136;2022-10-31T09:23:26;10.52;;;4.60;;
15254;SDS011;7730;49.610;11.136;2022-10-31T09:25:53;12.23;;;4.93;;
15254;SDS011;7730;49.610;11.136;2022-10-31T09:28:21;11.23;;;5.10;;
15254;SDS011;7730;49.610;11.136;2022-10-31T09:30:49;11.45;;;5.10;;
15254;SDS011;7730;49.610;11.136;2022-10-31T09:33:19;10.70;;;4.53;;
15254;SDS011;7730;49.610;11.136;2022-10-31T09:35:46;13.23;;;5.20;;
15254;SDS011;7730;49.610;11.136;2022-10-31T09:38:16;11.93;;;5.50;;
15254;SDS011;7730;49.610;11.136;2022-10-31T09:40:45;12.32;;;5.18;;
15254;SDS011;7730;49.610;11.136;2022-10-31T09:43:14;10.52;;;4.90;;
15254;SDS011;7730;49.610;11.136;2022-10-31T09:45:45;12.90;;;5.72;;
15254;SDS011;7730;49.610;11.136;2022-10-31T09:48:24;12.23;;;5.20;;
15254;SDS011;7730;49.610;11.136;2022-10-31T09:50:57;12.90;;;5.43;;
15254;SDS011;7730;49.610;11.136;2022-10-31T09:53:26;13.55;;;5.70;;
15254;SDS011;7730;49.610;11.136;2022-10-31T09:55:56;12.98;;;5.45;;
15254;SDS011;7730;49.610;11.136;2022-10-31T09:58:25;21.15;;;9.52;;
15254;SDS011;7730;49.610;11.136;2022-10-31T10:00:53;15.88;;;7.03;;
15254;SDS011;7730;49.610;11.136;2022-10-31T10:03:24;13.77;;;5.63;;
15254;SDS011;7730;49.610;11.136;2022-10-31T10:05:54;15.55;;;6.30;;
15254;SDS011;7730;49.610;11.136;2022-10-31T10:08:25;14.93;;;5.85;;
15254;SDS011;7730;49.610;11.136;2022-10-31T10:10:54;13.50;;;6.22;;
15254;SDS011;7730;49.610;11.136;2022-10-31T10:13:29;15.73;;;6.10;;
15254;SDS011;7730;49.610;11.136;2022-10-31T10:16:08;14.45;;;6.50;;
15254;SDS011;7730;49.610;11.136;2022-10-31T10:18:42;14.27;;;6.45;;
15254;SDS011;7730;49.610;11.136;2022-10-31T10:21:15;14.50;;;6.40;;
15254;SDS011;7730;49.610;11.136;2022-10-31T10:23:49;16.40;;;6.25;;
15254;SDS011;7730;49.610;11.136;2022-10-31T10:26:19;13.05;;;5.65;;
15254;SDS011;7730;49.610;11.136;2022-10-31T10:28:47;13.55;;;6.05;;
15254;SDS011;7730;49.610;11.136;2022-10-31T10:31:16;14.65;;;6.03;;
15254;SDS011;7730;49.610;11.136;2022-10-31T10:33:47;14.15;;;6.38;;
15254;SDS011;7730;49.610;11.136;2022-10-31T10:36:17;14.30;;;5.50;;
15254;SDS011;7730;49.610;11.136;2022-10-31T10:38:50;13.50;;;6.00;;
15254;SDS011;7730;49.610;11.136;2022-10-31T10:41:19;12.68;;;5.68;;
15254;SDS011;7730;49.610;11.136;2022-10-31T10:43:48;14.50;;;6.43;;
15254;SDS011;7730;49.610;11.136;2022-10-31T10:46:19;16.45;;;6.22;;
15254;SDS011;7730;49.610;11.136;2022-10-31T10:49:08;15.65;;;6.07;;
15254;SDS011;7730;49.610;11.136;2022-10-31T10:51:37;13.88;;;5.93;;
15254;SDS011;7730;49.610;11.136;2022-10-31T10:54:12;13.98;;;6.40;;
15254;SDS011;7730;49.610;11.136;2022-10-31T10:56:44;13.23;;;6.10;;
15254;SDS011;7730;49.610;11.136;2022-10-31T10:59:13;18.25;;;6.60;;
15254;SDS011;7730;49.610;11.136;2022-10-31T11:01:42;14.48;;;6.63;;
15254;SDS011;7730;49.610;11.136;2022-10-31T11:04:19;15.23;;;6.57;;
15254;SDS011;7730;49.610;11.136;2022-10-31T11:06:56;13.35;;;6.35;;
15254;SDS011;7730;49.610;11.136;2022-10-31T11:09:23;15.35;;;6.53;;
15254;SDS011;7730;49.610;11.136;2022-10-31T11:11:50;18.02;;;6.65;;
15254;SDS011;7730;49.610;11.136;2022-10-31T11:14:18;16.27;;;7.25;;
15254;SDS011;7730;49.610;11.136;2022-10-31T11:16:46;15.35;;;6.55;;
15254;SDS011;7730;49.610;11.136;2022-10-31T11:19:15;16.85;;;7.35;;
15254;SDS011;7730;49.610;11.136;2022-10-31T11:21:44;14.15;;;6.75;;
15254;SDS011;7730;49.610;11.136;2022-10-31T11:24:13;14.30;;;6.47;;
15254;SDS011;7730;49.610;11.136;2022-10-31T11:26:41;15.70;;;7.25;;
15254;SDS011;7730;49.610;11.136;2022-10-31T11:29:13;16.23;;;7.32;;
15254;SDS011;7730;49.610;11.136;2022-10-31T11:31:40;15.82;;;8.13;;
15254;SDS011;7730;49.610;11.136;2022-10-31T11:34:12;14.93;;;6.78;;
15254;SDS011;7730;49.610;11.136;2022-10-31T11:36:43;14.35;;;6.93;;
15254;SDS011;7730;49.610;11.136;2022-10-31T11:39:15;14.77;;;6.65;;
15254;SDS011;7730;49.610;11.136;2022-10-31T11:41:43;16.60;;;7.32;;
15254;SDS011;7730;49.610;11.136;2022-10-31T11:44:12;13.77;;;6.68;;
15254;SDS011;7730;49.610;11.136;2022-10-31T11:46:40;14.23;;;6.90;;
15254;SDS011;7730;49.610;11.136;2022-10-31T11:49:11;14.52;;;7.15;;
15254;SDS011;7730;49.610;11.136;2022-10-31T11:51:40;16.45;;;6.90;;
15254;SDS011;7730;49.610;11.136;2022-10-31T11:54:18;15.27;;;6.80;;
15254;SDS011;7730;49.610;11.136;2022-10-31T11:56:45;14.40;;;6.88;;
15254;SDS011;7730;49.610;11.136;2022-10-31T11:59:15;17.13;;;7.18;;
15254;SDS011;7730;49.610;11.136;2022-10-31T12:01:46;15.13;;;6.65;;
15254;SDS011;7730;49.610;11.136;2022-10-31T12:04:13;13.50;;;6.53;;
15254;SDS011;7730;49.610;11.136;2022-10-31T12:06:42;13.77;;;6.70;;
15254;SDS011;7730;49.610;11.136;2022-10-31T12:09:18;13.35;;;6.32;;
15254;SDS011;7730;49.610;11.136;2022-10-31T12:11:49;14.27;;;6.32;;
15254;SDS011;7730;49.610;11.136;2022-10-31T12:14:30;15.93;;;6.43;;
15254;SDS011;7730;49.610;11.136;2022-10-31T12:16:59;14.98;;;6.20;;
15254;SDS011;7730;49.610;11.136;2022-10-31T12:19:33;15.98;;;6.47;;
15254;SDS011;7730;49.610;11.136;2022-10-31T12:22:08;15.02;;;6.43;;
15254;SDS011;7730;49.610;11.136;2022-10-31T12:24:45;14.70;;;6.13;;
15254;SDS011;7730;49.610;11.136;2022-10-31T12:27:19;14.50;;;6.72;;
15254;SDS011;7730;49.610;11.136;2022-10-31T12:29:54;17.45;;;7.00;;
15254;SDS011;7730;49.610;11.136;2022-10-31T12:32:27;15.80;;;7.00;;
15254;SDS011;7730;49.610;11.136;2022-10-31T12:35:00;14.20;;;6.68;;
15254;SDS011;7730;49.610;11.136;2022-10-31T12:37:33;16.10;;;7.15;;
15254;SDS011;7730;49.610;11.136;2022-10-31T12:40:12;15.38;;;6.88;;
15254;SDS011;7730;49.610;11.136;2022-10-31T12:42:46;16.77;;;7.20;;
15254;SDS011;7730;49.610;11.136;2022-10-31T12:45:25;15.10;;;7.30;;
15254;SDS011;7730;49.610;11.136;2022-10-31T12:47:59;15.95;;;7.13;;
15254;SDS011;7730;49.610;11.136;2022-10-31T12:50:34;14.88;;;7.40;;
15254;SDS011;7730;49.610;11.136;2022-10-31T12:53:07;15.13;;;7.38;;
15254;SDS011;7730;49.610;11.136;2022-10-31T12:55:38;16.23;;;8.05;;
15254;SDS011;7730;49.610;11.136;2022-10-31T12:58:09;16.70;;;8.23;;
15254;SDS011;7730;49.610;11.136;2022-10-31T13:00:37;17.83;;;8.35;;
15254;SDS011;7730;49.610;11.136;2022-10-31T13:03:09;16.88;;;8.70;;
15254;SDS011;7730;49.610;11.136;2022-10-31T13:05:40;15.40;;;8.45;;
15254;SDS011;7730;49.610;11.136;2022-10-31T13:08:09;17.90;;;8.70;;
15254;SDS011;7730;49.610;11.136;2022-10-31T13:10:37;16.75;;;8.52;;
15254;SDS011;7730;49.610;11.136;2022-10-31T13:13:11;18.35;;;8.63;;
15254;SDS011;7730;49.610;11.136;2022-10-31T13:15:44;17.23;;;8.70;;
15254;SDS011;7730;49.610;11.136;2022-10-31T13:18:15;15.88;;;8.15;;
15254;SDS011;7730;49.610;11.136;2022-10-31T13:20:45;16.00;;;8.18;;
15254;SDS011;7730;49.610;11.136;2022-10-31T13:23:14;16.20;;;7.85;;
15254;SDS011;7730;49.610;11.136;2022-10-31T13:25:45;16.48;;;7.85;;
15254;SDS011;7730;49.610;11.136;2022-10-31T13:28:19;15.88;;;7.93;;
15254;SDS011;7730;49.610;11.136;2022-10-31T13:30:50;17.55;;;8.27;;
15254;SDS011;7730;49.610;11.136;2022-10-31T13:33:19;15.60;;;7.65;;
15254;SDS011;7730;49.610;11.136;2022-10-31T13:35:50;15.82;;;7.65;;
15254;SDS011;7730;49.610;11.136;2022-10-31T13:38:19;19.20;;;8.70;;
15254;SDS011;7730;49.610;11.136;2022-10-31T13:40:50;16.70;;;8.68;;
15254;SDS011;7730;49.610;11.136;2022-10-31T13:43:26;16.08;;;8.60;;
15254;SDS011;7730;49.610;11.136;2022-10-31T13:45:54;15.65;;;8.25;;
15254;SDS011;7730;49.610;11.136;2022-10-31T13:48:35;19.17;;;8.13;;
15254;SDS011;7730;49.610;11.136;2022-10-31T13:51:04;17.27;;;8.75;;
15254;SDS011;7730;49.610;11.136;2022-10-31T13:53:37;17.15;;;8.35;;
15254;SDS011;7730;49.610;11.136;2022-10-31T13:56:11;18.65;;;8.93;;
15254;SDS011;7730;49.610;11.136;2022-10-31T13:58:41;16.15;;;8.38;;
15254;SDS011;7730;49.610;11.136;2022-10-31T14:01:13;17.92;;;8.70;;
15254;SDS011;7730;49.610;11.136;2022-10-31T14:03:42;15.43;;;7.90;;
15254;SDS011;7730;49.610;11.136;2022-10-31T14:06:10;17.13;;;9.07;;
15254;SDS011;7730;49.610;11.136;2022-10-31T14:08:39;16.52;;;7.80;;
15254;SDS011;7730;49.610;11.136;2022-10-31T14:11:08;15.93;;;8.00;;
15254;SDS011;7730;49.610;11.136;2022-10-31T14:13:36;17.23;;;7.90;;
15254;SDS011;7730;49.610;11.136;2022-10-31T14:16:20;16.58;;;8.02;;
15254;SDS011;7730;49.610;11.136;2022-10-31T14:18:48;15.77;;;7.43;;
15254;SDS011;7730;49.610;11.136;2022-10-31T14:21:25;15.65;;;7.68;;
15254;SDS011;7730;49.610;11.136;2022-10-31T14:23:53;14.88;;;7.38;;
15254;SDS011;7730;49.610;11.136;2022-10-31T14:26:30;15.55;;;7.25;;
15254;SDS011;7730;49.610;11.136;2022-10-31T14:28:58;16.00;;;7.35;;
15254;SDS011;7730;49.610;11.136;2022-10-31T14:31:31;15.38;;;7.32;;
15254;SDS011;7730;49.610;11.136;2022-10-31T14:34:01;16.15;;;7.57;;
15254;SDS011;7730;49.610;11.136;2022-10-31T14:36:30;13.63;;;7.00;;
15254;SDS011;7730;49.610;11.136;2022-10-31T14:39:02;16.15;;;7.13;;
15254;SDS011;7730;49.610;11.136;2022-10-31T14:41:37;14.52;;;7.07;;
15254;SDS011;7730;49.610;11.136;2022-10-31T14:44:19;15.38;;;7.10;;
15254;SDS011;7730;49.610;11.136;2022-10-31T14:46:53;14.63;;;7.22;;
15254;SDS011;7730;49.610;11.136;2022-10-31T14:49:27;16.25;;;7.57;;